Allentown, PA

10:21 EST dnia 22-luty-2017 (GMT -0500)
South Filmore Street | | Change Station

Wysokość 341 ft 40.59 °N, 75.45 °W | Updated 20 seconds ago

Clear
pogodnie
47.7 ° F
Odczuwalna 48 ° F
Płn.
1.0
Wiatr zmienny Wiatr od PdPdWs

Dziś
Wysoka -- | Niska -- ° F
--% Prawdop. opadów
Wczoraj
Wysoka -- | Niska -- ° F
Precip. -- cali
Ciśnienie 30.03 cali
Widzialność 10.0 mil
chmury pogodnie
czynnik chłodzący wiatru 48 ° F
Punkt rosy 37 ° F
Wilgotność 66%
Opady deszczu 0.00 cali
grubość pokrywy śnieżnej Niedostępne.
6:45 AM 5:45 PM
Zmniejszający się sierp Księżyca, 17% visible
METAR KXLL 221515Z AUTO 23003KT 10SM CLR 07/02 A3003 RMK AO2
Ciśnienie 30.03 cali
Widzialność 10.0 mil
chmury pogodnie
czynnik chłodzący wiatru 48 ° F
Punkt rosy 37 ° F
Wilgotność 66%
Opady deszczu 0.00 cali
grubość pokrywy śnieżnej Niedostępne.
6:45 AM 5:45 PM
Zmniejszający się sierp Księżyca, 17% visible
METAR KXLL 221515Z AUTO 23003KT 10SM CLR 07/02 A3003 RMK AO2

Get Your Daily Forecast Email!

Thanks for signing up!

Be on the lookout for a verification email in your inbox.

You'll start receiving the daily forecast at 8 AM.

×

10-Day Weather Forecast

Almanac

Astronomia

Feb. 22, 2017 Wschód Zachów
Aktualny czas
Zmierzch cywilny
Zmierzch żeglarski
świt/zmierzch astronomiczny
Księżyc
całkowite oświetlenie
Długość dnia
Tomorrow will be .
, % of the Moon is Illuminated

Dzisiejsze ekstrema

State Highs State Lows

Community

WunderPhotos

Upload Photos

1,962,540 zdjęcia zostały przesłane!

WunderBlog® & News

Nearby

Jakość powietrza

  Jakość powietrza czynnik AQ Zanieczyszczenie
Not available.

Głębokość pokrywy śnieżnej

Station Depth n.p.m.

Aktywność sejsmiczna

Miejscowość Distance Mag. Time & Date
Minimum magnitude displayed is 2.5.

Temperatury wody na wybrzeżu

Miejsce Temperatura

Stations

Najbliższa stacja pogodowa

Lokalizacja stacji Temp. czynnik chłodzący wiatru Punkt rosy Wilgotność Wiatr Precip. Wysokość Uaktualniono Typ
                   

Watches & Warnings

There are currently no watches in effect.